Norfolk, Virginia
Traffic Map
Current Weather Conditions
Norfolk, Virginia
Clear
Clear
48°
Feels Like: 48°
Wind Chill: 48° Ceiling: Unl
Heat Index: 48° Visibility: 10mi
Dew Point: 44° Wind: 0mph
Humidity: 86% Direction: ° ()
Pressure: 29.96in Gusts: 0mph
Raw Report DataKORF 250651Z AUTO 00000KT 10SM CLR 09/07 A2996 RMK AO2 SLP144 T00890067 TSNO
Traffic Incident Summary
Active as of:
Severity:
Category:
InformationThere was an issue retrieving the traffic information for this location. Please try a different location or try again shortly.
Advertisements
Track Severe Weather on mobile